Hauptseite
METAR-TAF:

METAR-TAF

Flughäfen :

RAF Waddington

Waddington, England

Breite: 53-10N, Länge: 000-31W, Höhe: 68 m

Beobachtung

Neuester Wetterbericht von vor 45 Minuten, um 18:50 UTC
Wind 5 kt aus West
Temperatur 16°C
Luftfeuchtigkeit 59%
Luftdruck 1017 hPa
Sichtweite 10 km oder mehr
keine Wolken unter 1500 m und keine Kumulonimbus oder Gewitterwolken

METAR: EGXW 221850Z 27005KT CAVOK 16/08 Q1017 BLU NOSIG

Zeit: 20:35 (19:35 UTC)

Prognose

Neuester Wetterbericht von vor 3 Stunden und 18 Minuten, um 16:17 UTC
Gültige Prognose vom 22 um 18 UTC bis 23 um 12 UTC
Wind 8 kt aus West
Sichtweite 10 km oder mehr
keine Wolken unter 1500 m und keine Kumulonimbus oder Gewitterwolken

TAF: EGXW 221617Z 2218/2312 28008KT CAVOK

Wetterbeobachtungen und Prognosen von mehr als 4000 Flughäfen (METAR und TAF Bericht).

Die verfügbaren Stationen werden durch gelbe und rote Markierungen auf der Karte dargestellt.

Führen Sie die Maus auf sie, um den Namen der Station zu sehen.

Darauf klicken, um die Beobachtung von Wetterbeobachtungen und Prognosen zu sehen.

Um die Karte zu ändern : klicken Sie auf den grünen Tasten mit einem schwarzen Kreuz Zum Vergrößern, auf den grünen Button mit einem Gedankenstrich zu verkleinern, oder auf die grünen Pfeile für benachbarte Karten.


METAR-TAF: